createdAt,value
2018-12-29T00:01:22.566Z,79.70
2018-12-29T00:03:52.220Z,85.20
2018-12-29T00:06:21.813Z,94.70
2018-12-29T00:08:51.553Z,82.78
2018-12-29T00:11:21.173Z,90.77
2018-12-29T00:13:50.761Z,87.62
2018-12-29T00:16:21.545Z,85.05
2018-12-29T00:18:52.200Z,86.57
2018-12-29T00:21:21.694Z,96.60
2018-12-29T00:23:51.224Z,96.70
2018-12-29T00:26:21.224Z,102.87
2018-12-29T00:28:52.221Z,103.53
2018-12-29T00:31:21.869Z,103.75
2018-12-29T00:33:51.548Z,113.25
2018-12-29T00:36:23.276Z,83.78
2018-12-29T00:38:54.831Z,78.60
2018-12-29T00:41:25.412Z,80.35
2018-12-29T00:43:56.097Z,88.97
2018-12-29T00:46:25.729Z,87.62
2018-12-29T00:48:55.544Z,87.00
2018-12-29T00:51:25.121Z,90.35
2018-12-29T00:53:54.631Z,88.55
2018-12-29T00:56:24.288Z,90.70
2018-12-29T00:58:53.795Z,84.37
2018-12-29T01:01:23.426Z,93.10
2018-12-29T01:03:52.995Z,95.90
2018-12-29T01:06:22.636Z,99.87
2018-12-29T01:08:52.462Z,98.03
2018-12-29T01:11:22.029Z,126.15
2018-12-29T01:13:51.665Z,91.17
2018-12-29T01:16:21.187Z,103.42
2018-12-29T01:18:50.683Z,120.20
2018-12-29T01:21:20.698Z,102.87
2018-12-29T01:23:50.435Z,119.57
2018-12-29T01:26:21.564Z,105.70
2018-12-29T01:28:51.124Z,142.35
2018-12-29T01:31:20.665Z,109.57
2018-12-29T01:33:51.749Z,104.25
2018-12-29T01:36:21.451Z,119.15
2018-12-29T01:38:50.964Z,109.07
2018-12-29T01:41:20.461Z,107.78
2018-12-29T01:44:08.053Z,101.35
2018-12-29T01:46:37.556Z,98.30
2018-12-29T01:49:07.242Z,86.80
2018-12-29T01:51:38.496Z,92.22
2018-12-29T01:54:08.026Z,83.87
2018-12-29T01:56:37.613Z,95.90
2018-12-29T01:59:09.103Z,90.77
2018-12-29T02:01:38.327Z,92.15
2018-12-29T02:04:08.710Z,93.50
2018-12-29T02:06:38.197Z,88.82
2018-12-29T02:09:07.969Z,85.85
2018-12-29T02:11:37.498Z,96.17
2018-12-29T02:14:07.411Z,93.52
2018-12-29T02:16:36.914Z,97.12
2018-12-29T02:19:06.554Z,93.05
2018-12-29T02:21:36.155Z,89.58
2018-12-29T05:35:15.236Z,80.42
2018-12-29T05:37:45.113Z,81.85
2018-12-29T05:40:36.477Z,82.15
2018-12-29T05:43:05.940Z,70.45
2018-12-29T05:45:35.796Z,74.47
2018-12-29T05:48:06.419Z,71.12
2018-12-29T05:50:35.920Z,70.87
2018-12-29T05:53:05.556Z,72.15
2018-12-29T05:55:35.052Z,79.35
2018-12-29T05:58:04.756Z,81.12
2018-12-29T06:00:34.268Z,70.47
2018-12-29T06:03:03.757Z,76.67
2018-12-29T06:05:33.357Z,72.53
2018-12-29T06:08:06.501Z,77.62
2018-12-29T06:10:36.042Z,84.22
2018-12-29T06:13:06.481Z,73.25
2018-12-29T06:15:36.014Z,78.40
2018-12-29T06:18:06.794Z,81.17
2018-12-29T06:20:38.004Z,87.95
2018-12-29T06:23:07.616Z,89.97
2018-12-29T06:25:37.080Z,85.62
2018-12-29T06:28:06.554Z,72.55
2018-12-29T06:30:37.776Z,74.15
2018-12-29T06:33:08.346Z,76.95
2018-12-29T06:35:37.884Z,75.52
2018-12-29T06:38:07.317Z,76.75
2018-12-29T06:40:36.803Z,75.92
2018-12-29T06:43:06.907Z,75.65
2018-12-29T06:45:36.402Z,80.50
2018-12-29T06:48:05.959Z,74.58
2018-12-29T06:50:35.478Z,74.92
2018-12-29T06:53:06.528Z,64.27
2018-12-29T06:55:36.024Z,81.00
2018-12-29T06:58:05.732Z,79.22
2018-12-29T07:00:35.242Z,71.82
2018-12-29T07:03:08.238Z,85.67
2018-12-29T07:05:37.500Z,81.47
2018-12-29T07:08:06.960Z,78.83
2018-12-29T07:10:36.903Z,81.50
2018-12-29T07:13:06.440Z,86.57
2018-12-29T07:15:39.180Z,75.22
2018-12-29T07:18:08.654Z,81.50
2018-12-29T07:20:39.915Z,82.40
2018-12-29T07:23:10.851Z,74.37
2018-12-29T07:25:40.336Z,77.03
2018-12-29T07:28:10.027Z,73.90
2018-12-29T07:30:39.536Z,67.80
2018-12-29T07:33:09.260Z,76.37
2018-12-29T07:35:38.715Z,80.35
2018-12-29T07:38:08.178Z,82.17
2018-12-29T07:40:37.903Z,83.30
2018-12-29T07:43:07.426Z,79.10
2018-12-29T07:45:36.983Z,78.05
2018-12-29T07:48:06.832Z,83.25
2018-12-29T07:50:38.220Z,80.60
2018-12-29T07:53:07.707Z,79.77
2018-12-29T07:55:37.367Z,73.47
2018-12-29T07:58:14.612Z,74.35
2018-12-29T08:00:44.288Z,72.72
2018-12-29T08:03:15.631Z,73.00
2018-12-29T08:05:45.179Z,72.30
2018-12-29T08:08:15.662Z,74.70
2018-12-29T08:10:45.417Z,69.42
2018-12-29T08:13:14.886Z,68.22
2018-12-29T08:15:44.945Z,69.72
2018-12-29T08:18:14.834Z,67.45
2018-12-29T08:20:44.341Z,70.15
2018-12-29T08:23:13.824Z,72.67
2018-12-29T08:25:43.652Z,72.82
2018-12-29T08:28:13.238Z,63.75
2018-12-29T08:30:43.872Z,75.03
2018-12-29T08:33:13.386Z,70.78
2018-12-29T08:35:42.856Z,75.60
2018-12-29T08:38:12.377Z,69.15
2018-12-29T08:40:41.872Z,65.05
2018-12-29T08:43:11.343Z,62.53
2018-12-29T08:45:41.003Z,66.62
2018-12-29T08:48:10.503Z,63.92
2018-12-29T08:50:47.992Z,66.95
2018-12-29T08:53:23.535Z,71.28
2018-12-29T08:55:53.080Z,66.00
2018-12-29T08:58:22.551Z,71.45
2018-12-29T09:00:52.205Z,67.85
2018-12-29T09:03:22.537Z,64.92
2018-12-29T09:05:52.837Z,63.65
2018-12-29T09:08:22.332Z,70.37
2018-12-29T09:10:57.846Z,62.50
2018-12-29T09:13:24.919Z,60.43
2018-12-29T09:15:54.466Z,64.15
2018-12-29T09:18:23.998Z,66.42
2018-12-29T09:20:56.401Z,57.65
2018-12-29T09:23:25.921Z,63.52
2018-12-29T09:25:55.496Z,63.85
2018-12-29T09:28:25.271Z,57.85
2018-12-29T09:30:54.784Z,58.28
2018-12-29T09:33:26.084Z,59.55
2018-12-29T09:35:57.890Z,64.05
2018-12-29T09:38:30.176Z,56.45
2018-12-29T09:41:01.232Z,61.90
2018-12-29T09:43:30.769Z,64.58
2018-12-29T09:46:01.774Z,58.68
2018-12-29T09:48:31.263Z,61.37
2018-12-29T09:51:01.194Z,62.05
2018-12-29T09:53:33.379Z,70.08
2018-12-29T09:56:02.817Z,59.73
2018-12-29T09:58:32.388Z,68.52
2018-12-29T10:01:01.943Z,64.72
2018-12-29T10:03:31.520Z,67.70
2018-12-29T10:06:01.268Z,69.22
2018-12-29T10:08:38.271Z,67.30
2018-12-29T10:11:09.861Z,64.82
2018-12-29T10:13:39.721Z,65.45
2018-12-29T10:16:09.243Z,69.62
2018-12-29T10:18:41.098Z,65.50
2018-12-29T10:21:10.357Z,57.62
2018-12-29T10:23:39.867Z,56.53
2018-12-29T10:26:10.571Z,61.05
2018-12-29T10:28:40.111Z,51.00
2018-12-29T10:31:09.633Z,57.80
2018-12-29T10:33:39.264Z,55.60
2018-12-29T10:36:08.753Z,56.08
2018-12-29T10:38:38.232Z,50.52
2018-12-29T10:41:07.878Z,53.42
2018-12-29T10:43:37.315Z,51.63
2018-12-29T10:46:08.033Z,51.68
2018-12-29T10:48:37.612Z,54.40
2018-12-29T10:51:07.066Z,53.28
2018-12-29T10:53:36.725Z,49.58
2018-12-29T10:56:07.857Z,48.80
2018-12-29T10:58:38.603Z,50.67
2018-12-29T11:01:08.734Z,54.05
2018-12-29T11:03:38.888Z,56.68
2018-12-29T11:06:08.495Z,59.65
2018-12-29T11:08:38.036Z,50.80
2018-12-29T11:11:11.002Z,56.20
2018-12-29T11:13:40.519Z,55.73
2018-12-29T11:16:12.616Z,60.43
2018-12-29T11:18:43.716Z,50.75
2018-12-29T11:21:13.246Z,51.58
2018-12-29T11:23:42.903Z,53.90
2018-12-29T11:26:12.400Z,49.15
2018-12-29T11:28:42.994Z,52.53
2018-12-29T11:31:16.800Z,49.35
2018-12-29T11:33:45.396Z,48.13
2018-12-29T11:36:15.420Z,45.12
2018-12-29T11:38:51.291Z,45.52
2018-12-29T11:41:20.744Z,47.67
2018-12-29T11:43:50.497Z,51.55
2018-12-29T11:46:20.032Z,52.78
2018-12-29T11:48:49.762Z,49.53
2018-12-29T11:51:19.389Z,45.98
2018-12-29T11:53:48.999Z,45.23
2018-12-29T11:56:18.696Z,51.33
2018-12-29T11:58:48.195Z,52.73
2018-12-29T12:01:17.716Z,43.55
2018-12-29T12:03:48.531Z,42.38
2018-12-29T12:06:18.197Z,47.55
2018-12-29T12:08:47.784Z,45.43
2018-12-29T12:11:18.926Z,46.55
2018-12-29T12:13:48.491Z,46.08
2018-12-29T12:16:18.067Z,44.67
2018-12-29T12:18:47.657Z,46.77
2018-12-29T12:21:27.398Z,43.65
2018-12-29T12:23:58.736Z,48.85
2018-12-29T12:26:29.147Z,48.45
2018-12-29T12:28:59.853Z,44.95
2018-12-29T12:31:30.185Z,45.65
2018-12-29T12:33:59.787Z,49.93
2018-12-29T12:36:38.802Z,45.48
2018-12-29T12:39:09.707Z,44.63
2018-12-29T12:41:39.779Z,44.20
2018-12-29T12:44:09.325Z,43.48
2018-12-29T12:46:59.282Z,45.17
2018-12-29T12:49:28.929Z,44.73
2018-12-29T12:51:58.521Z,42.10
2018-12-29T12:54:28.064Z,44.67
2018-12-29T12:56:57.552Z,43.95
2018-12-29T12:59:29.409Z,41.02
2018-12-29T13:01:58.909Z,40.55
2018-12-29T13:04:28.487Z,40.00
2018-12-29T13:06:58.343Z,44.95
2018-12-29T13:09:28.835Z,44.48
2018-12-29T13:11:59.755Z,42.73
2018-12-29T13:14:29.268Z,40.65
2018-12-29T13:17:00.040Z,40.40
2018-12-29T13:19:29.593Z,45.10
2018-12-29T13:21:59.480Z,47.38
2018-12-29T13:24:29.604Z,47.33
2018-12-29T13:26:59.084Z,37.42
2018-12-29T13:29:29.493Z,35.63
2018-12-29T13:31:59.111Z,36.53
2018-12-29T13:34:28.623Z,43.48
2018-12-29T13:36:58.138Z,47.70
2018-12-29T13:39:27.917Z,45.88
2018-12-29T13:41:57.585Z,40.00
2018-12-29T13:44:28.311Z,40.63
2018-12-29T13:46:58.734Z,37.08
2018-12-29T13:49:28.221Z,38.53
2018-12-29T13:51:57.977Z,40.88
2018-12-29T13:54:27.461Z,37.30
2018-12-29T13:56:57.464Z,40.43
2018-12-29T13:59:27.011Z,38.58
2018-12-29T14:01:56.958Z,39.18
2018-12-29T14:04:30.164Z,40.50
2018-12-29T14:07:36.403Z,39.90
2018-12-29T14:10:42.032Z,38.33
2018-12-29T14:13:11.620Z,38.98
2018-12-29T14:15:41.160Z,39.18
2018-12-29T14:18:28.998Z,37.53
2018-12-29T14:20:58.820Z,34.53
2018-12-29T14:23:28.546Z,35.43
2018-12-29T14:25:58.286Z,32.75
2018-12-29T14:28:45.917Z,36.40
2018-12-29T14:31:33.936Z,38.45
2018-12-29T14:34:03.667Z,37.10
2018-12-29T14:36:33.281Z,40.92
2018-12-29T14:39:02.931Z,60.48
2018-12-29T14:41:32.642Z,47.27
2018-12-29T14:44:20.247Z,42.60
2018-12-29T14:46:49.745Z,45.80
2018-12-29T14:49:19.738Z,47.50
2018-12-29T14:51:49.347Z,44.23
2018-12-29T14:54:18.887Z,56.10
2018-12-29T14:56:48.478Z,39.88
2018-12-29T14:59:17.968Z,45.90
2018-12-29T15:01:47.541Z,42.88
2018-12-29T15:04:17.210Z,44.33
2018-12-29T15:06:46.906Z,53.00
2018-12-29T15:09:16.436Z,56.20
2018-12-29T15:11:46.423Z,51.40
2018-12-29T15:14:15.945Z,53.92
2018-12-29T15:16:46.046Z,52.80
2018-12-29T15:19:15.650Z,46.05
2018-12-29T15:21:45.444Z,45.65
2018-12-29T15:24:15.023Z,46.15
2018-12-29T15:27:38.054Z,61.40
2018-12-29T15:30:08.574Z,47.45
2018-12-29T15:32:38.255Z,46.25
2018-12-29T15:35:08.354Z,45.63
2018-12-29T15:37:37.939Z,44.15
2018-12-29T15:40:07.534Z,45.40
2018-12-29T15:42:44.696Z,54.40
2018-12-29T15:45:08.584Z,51.42
2018-12-29T15:47:38.168Z,49.80
2018-12-29T15:50:07.902Z,68.87
2018-12-29T15:52:37.548Z,55.60
2018-12-29T15:55:07.127Z,57.03
2018-12-29T15:57:36.793Z,78.28
2018-12-29T16:00:06.385Z,55.05
2018-12-29T16:02:36.175Z,52.53
2018-12-29T16:05:05.883Z,50.20
2018-12-29T16:07:35.821Z,50.10
2018-12-29T16:10:08.780Z,46.20
2018-12-29T16:12:40.379Z,49.67
2018-12-29T16:15:09.638Z,49.30
2018-12-29T16:17:40.324Z,47.50
2018-12-29T16:20:09.906Z,49.75
2018-12-29T16:22:39.818Z,50.43
2018-12-29T16:25:10.443Z,50.78
2018-12-29T16:27:40.290Z,56.90
2018-12-29T16:30:09.926Z,51.75
2018-12-29T16:32:39.773Z,55.43
2018-12-29T16:35:09.357Z,61.25
2018-12-29T16:37:59.571Z,58.28
2018-12-29T16:40:31.690Z,65.35
2018-12-29T16:43:01.387Z,62.40
2018-12-29T16:45:31.530Z,63.28
2018-12-29T16:48:02.869Z,67.15
2018-12-29T16:50:32.526Z,72.47
2018-12-29T16:53:02.055Z,74.55
2018-12-29T16:55:31.864Z,76.33
2018-12-29T16:58:01.566Z,69.30
2018-12-29T17:00:31.437Z,81.30
2018-12-29T17:03:00.992Z,72.22
2018-12-29T17:05:30.764Z,70.05
2018-12-29T17:08:01.218Z,58.75
2018-12-29T17:10:30.867Z,59.05
2018-12-29T17:13:00.507Z,57.62
2018-12-29T17:15:30.021Z,60.80
2018-12-29T17:17:59.876Z,62.88
2018-12-29T17:20:29.468Z,56.02
2018-12-29T17:23:00.084Z,64.40
2018-12-29T17:25:30.868Z,62.70
2018-12-29T17:28:00.603Z,64.58
2018-12-29T17:34:11.428Z,53.75
2018-12-29T17:36:42.069Z,46.73
2018-12-29T17:39:11.815Z,53.68
2018-12-29T17:41:41.406Z,51.05
2018-12-29T17:44:10.997Z,47.75
2018-12-29T17:47:16.529Z,46.77
2018-12-29T17:49:45.889Z,50.28
2018-12-29T17:52:15.521Z,50.63
2018-12-29T17:54:44.974Z,49.70
2018-12-29T17:57:14.385Z,47.65
2018-12-29T17:59:44.881Z,48.38
2018-12-29T18:02:14.526Z,51.08
2018-12-29T18:04:44.049Z,44.98
2018-12-29T18:07:13.475Z,48.68
2018-12-29T18:09:43.117Z,50.43
2018-12-29T18:12:12.625Z,48.33
2018-12-29T18:14:42.557Z,44.90
2018-12-29T18:17:12.016Z,47.78
2018-12-29T18:19:41.453Z,48.87
2018-12-29T18:22:11.233Z,47.58
2018-12-29T18:24:40.709Z,54.50
2018-12-29T18:27:10.159Z,53.17
2018-12-29T18:29:40.010Z,58.55
2018-12-29T18:32:09.476Z,58.35
2018-12-29T18:34:39.293Z,50.92
2018-12-29T18:37:08.738Z,48.95
2018-12-29T18:39:38.186Z,49.08
2018-12-29T18:42:07.870Z,50.35
2018-12-29T18:44:37.324Z,50.15
2018-12-29T18:47:08.271Z,48.75
2018-12-29T18:49:38.639Z,51.13
2018-12-29T18:52:10.817Z,40.38
2018-12-29T18:54:40.239Z,47.00
2018-12-29T18:57:10.410Z,43.25
2018-12-29T18:59:39.882Z,43.40
2018-12-29T19:02:09.506Z,43.85
2018-12-29T19:04:44.604Z,38.78
2018-12-29T19:08:09.699Z,41.70
2018-12-29T19:11:32.899Z,36.65
2018-12-29T19:14:02.706Z,37.13
2018-12-29T19:16:32.251Z,38.75
2018-12-29T19:19:01.848Z,37.90
2018-12-29T19:21:33.132Z,33.85
2018-12-29T19:24:02.711Z,38.35
2018-12-29T19:26:32.609Z,36.80
2018-12-29T19:29:02.659Z,38.58
2018-12-29T19:31:33.244Z,39.98
2018-12-29T19:34:05.069Z,38.50
2018-12-29T19:36:34.871Z,35.50
2018-12-29T19:39:06.075Z,34.53
2018-12-29T19:41:35.610Z,40.58
2018-12-29T19:44:06.020Z,39.92
2018-12-29T19:46:35.966Z,37.83
2018-12-29T19:49:05.643Z,32.17
2018-12-29T19:51:35.264Z,34.95
2018-12-29T19:54:05.101Z,35.38
2018-12-29T19:56:36.971Z,35.70
2018-12-29T19:59:07.210Z,37.42
2018-12-29T20:01:36.838Z,38.05
2018-12-29T20:04:06.926Z,38.88
2018-12-29T20:06:36.718Z,40.38
2018-12-29T20:09:08.052Z,36.68
2018-12-29T20:11:37.896Z,36.45
2018-12-29T20:14:07.751Z,33.25
2018-12-29T20:16:37.429Z,37.90
2018-12-29T20:19:07.205Z,38.92
2018-12-29T20:22:15.461Z,39.35
2018-12-29T20:24:47.817Z,40.98
2018-12-29T20:27:17.558Z,42.38
2018-12-29T20:30:05.562Z,38.67
2018-12-29T20:32:36.257Z,40.90
2018-12-29T20:35:08.186Z,40.38
2018-12-29T20:37:37.937Z,34.23
2018-12-29T20:40:09.127Z,39.33
2018-12-29T20:42:39.032Z,38.17
2018-12-29T20:45:09.232Z,36.73
2018-12-29T20:47:39.072Z,39.03
2018-12-29T20:50:11.225Z,38.88
2018-12-29T20:52:45.678Z,38.85
2018-12-29T20:55:21.252Z,44.05
2018-12-29T20:57:53.138Z,43.10
2018-12-29T21:00:24.718Z,40.30
2018-12-29T21:02:55.842Z,38.40
2018-12-29T21:05:25.743Z,42.17
2018-12-29T21:07:55.512Z,40.50
2018-12-29T21:10:25.300Z,43.55
2018-12-29T21:12:56.185Z,40.20
2018-12-29T21:15:27.838Z,38.63
2018-12-29T21:17:57.486Z,34.50
2018-12-29T21:20:28.441Z,32.67
2018-12-29T21:22:59.897Z,33.18
2018-12-29T21:25:47.789Z,32.75
2018-12-29T21:28:36.780Z,27.73
2018-12-29T21:31:06.538Z,35.23
2018-12-29T21:33:36.681Z,31.00
2018-12-29T21:36:07.967Z,34.20
2018-12-29T21:38:38.121Z,28.62
2018-12-29T21:41:07.828Z,34.30
2018-12-29T21:43:39.212Z,27.35
2018-12-29T21:46:12.224Z,27.87
2018-12-29T21:48:41.870Z,25.37
2018-12-29T21:51:11.763Z,28.20
2018-12-29T21:53:45.800Z,26.93
2018-12-29T21:56:18.250Z,26.60
2018-12-29T21:58:51.470Z,27.62
2018-12-29T22:01:21.140Z,25.02
2018-12-29T22:03:50.852Z,22.37
2018-12-29T22:06:20.609Z,33.98
2018-12-29T22:08:50.577Z,24.63
2018-12-29T22:11:25.125Z,24.55
2018-12-29T22:13:54.969Z,22.93
2018-12-29T22:16:24.695Z,22.30
2018-12-29T22:18:54.293Z,24.55
2018-12-29T22:21:23.978Z,24.92
2018-12-29T22:23:53.596Z,23.27
2018-12-29T22:26:29.304Z,22.52
2018-12-29T22:29:03.831Z,24.60
2018-12-29T22:31:35.434Z,26.25
2018-12-29T22:34:20.294Z,22.50
2018-12-29T22:36:51.536Z,20.57
2018-12-29T22:39:21.126Z,23.30
2018-12-29T22:41:53.706Z,23.50
2018-12-29T22:44:23.300Z,22.00
2018-12-29T22:46:53.122Z,21.33
2018-12-29T22:49:55.770Z,19.98
2018-12-29T22:52:25.558Z,21.62
2018-12-29T22:54:55.301Z,18.40
2018-12-29T22:57:25.173Z,18.82
2018-12-29T22:59:54.845Z,20.77
2018-12-29T23:02:24.643Z,18.40
2018-12-29T23:04:54.277Z,20.60
2018-12-29T23:07:23.969Z,20.92
2018-12-29T23:09:56.549Z,18.17
2018-12-29T23:12:26.354Z,16.80
2018-12-29T23:14:56.479Z,16.77
2018-12-29T23:17:26.281Z,16.87
2018-12-29T23:19:58.433Z,16.20
2018-12-29T23:22:28.476Z,16.07
2018-12-29T23:24:58.189Z,16.67
2018-12-29T23:27:35.561Z,18.98
2018-12-29T23:30:07.418Z,16.52
2018-12-29T23:32:37.186Z,17.57
2018-12-29T23:35:06.861Z,18.60
2018-12-29T23:37:36.480Z,20.10
2018-12-29T23:40:06.617Z,20.70
2018-12-29T23:42:36.682Z,19.85
2018-12-29T23:45:06.760Z,18.75
2018-12-29T23:47:36.843Z,17.48
2018-12-29T23:50:07.484Z,18.02
2018-12-29T23:52:37.374Z,17.12
2018-12-29T23:55:08.341Z,19.00
2018-12-29T23:57:38.429Z,16.93
